createdAt,value
2022-11-09T00:01:18.739Z,100465.81
2022-11-09T00:03:46.654Z,100456.63
2022-11-09T00:06:15.108Z,100456.91
2022-11-09T00:08:42.994Z,100450.69
2022-11-09T00:11:12.788Z,100453.38
2022-11-09T00:13:43.026Z,100457.97
2022-11-09T00:16:12.822Z,100439.28
2022-11-09T00:18:41.315Z,100449.00
2022-11-09T00:21:10.281Z,100447.38
2022-11-09T00:23:38.149Z,100444.69
2022-11-09T00:26:07.481Z,100433.50
2022-11-09T00:28:37.308Z,100447.63
2022-11-09T00:31:08.018Z,100453.84
2022-11-09T00:33:36.138Z,100446.00
2022-11-09T00:36:07.594Z,100443.81
2022-11-09T00:38:35.513Z,100446.00
2022-11-09T00:41:03.242Z,100443.03
2022-11-09T00:43:31.094Z,100444.38
2022-11-09T00:46:00.087Z,100438.44
2022-11-09T00:48:27.869Z,100448.44
2022-11-09T00:50:57.168Z,100447.63
2022-11-09T00:53:25.415Z,100445.44
2022-11-09T00:55:57.747Z,100440.03
2022-11-09T00:58:26.398Z,100448.72
2022-11-09T01:00:54.721Z,100445.19
2022-11-09T01:03:24.548Z,100458.69
2022-11-09T01:05:52.739Z,100458.97
2022-11-09T01:08:20.736Z,100458.97
2022-11-09T01:10:49.636Z,100457.06
2022-11-09T01:13:19.719Z,100450.03
2022-11-09T01:15:49.749Z,100455.44
2022-11-09T01:18:18.628Z,100462.69
2022-11-09T01:20:49.141Z,100470.03
2022-11-09T01:23:19.055Z,100473.81
2022-11-09T01:25:46.943Z,100473.25
2022-11-09T01:28:14.600Z,100468.09
2022-11-09T01:30:44.091Z,100467.03
2022-11-09T01:33:12.866Z,100473.50
2022-11-09T01:35:41.366Z,100469.16
2022-11-09T01:38:11.042Z,100469.16
2022-11-09T01:40:41.011Z,100469.41
2022-11-09T01:43:16.675Z,100482.13
2022-11-09T01:45:46.292Z,100476.72
2022-11-09T01:48:17.696Z,100472.38
2022-11-09T01:50:52.138Z,100478.59
2022-11-09T01:53:25.943Z,100481.56
2022-11-09T01:55:57.624Z,100477.22
2022-11-09T01:58:29.845Z,100469.94
2022-11-09T02:00:59.844Z,100466.41
2022-11-09T02:03:32.397Z,100462.06
2022-11-09T02:06:02.493Z,100475.59
2022-11-09T02:08:32.062Z,100461.25
2022-11-09T02:11:08.924Z,100460.13
2022-11-09T02:13:38.699Z,100474.22
2022-11-09T02:16:07.529Z,100472.59
2022-11-09T02:18:35.654Z,100466.91
2022-11-09T02:21:05.594Z,100465.28
2022-11-09T02:23:33.277Z,100476.91
2022-11-09T02:26:10.838Z,100483.13
2022-11-09T02:28:40.343Z,100471.50
2022-11-09T02:31:12.278Z,100485.03
2022-11-09T02:33:54.938Z,100494.19
2022-11-09T02:36:24.910Z,100488.81
2022-11-09T02:38:55.509Z,100487.97
2022-11-09T02:41:24.820Z,100489.63
2022-11-09T02:43:54.815Z,100484.47
2022-11-09T02:46:25.314Z,100485.28
2022-11-09T02:48:53.245Z,100486.09
2022-11-09T02:51:20.955Z,100475.53
2022-11-09T02:53:49.982Z,100482.56
2022-11-09T02:56:17.659Z,100481.75
2022-11-09T02:58:45.390Z,100476.34
2022-11-09T03:01:13.169Z,100440.88
2022-11-09T03:03:41.226Z,100453.91
2022-11-09T03:06:08.965Z,100456.88
2022-11-09T03:08:36.661Z,100454.44
2022-11-09T03:11:06.360Z,100467.94
2022-11-09T03:13:34.358Z,100464.13
2022-11-09T03:16:05.889Z,100471.72
2022-11-09T03:18:33.568Z,100489.81
2022-11-09T03:21:05.038Z,100500.06
2022-11-09T03:23:32.675Z,100503.56
2022-11-09T03:26:00.353Z,100501.69
2022-11-09T03:28:29.325Z,100506.28
2022-11-09T03:30:56.964Z,100505.47
2022-11-09T03:33:24.710Z,100514.38
2022-11-09T03:35:52.353Z,100518.16
2022-11-09T03:38:20.117Z,100517.34
2022-11-09T03:40:47.766Z,100519.22
2022-11-09T03:43:15.450Z,100529.22
2022-11-09T03:45:44.718Z,100527.59
2022-11-09T03:48:12.370Z,100533.00
2022-11-09T03:50:40.613Z,100533.25
2022-11-09T03:53:09.632Z,100545.69
2022-11-09T03:55:37.937Z,100542.16
2022-11-09T03:58:06.466Z,100545.69
2022-11-09T04:00:35.817Z,100542.16
2022-11-09T04:03:04.972Z,100550.28
2022-11-09T04:05:32.629Z,100554.88
2022-11-09T04:08:00.921Z,100559.44
2022-11-09T04:10:28.830Z,100551.34
2022-11-09T04:12:56.500Z,100559.44
2022-11-09T04:15:24.227Z,100556.75
2022-11-09T04:17:56.403Z,100561.34
2022-11-09T04:20:26.381Z,100564.28
2022-11-09T04:22:57.781Z,100561.34
2022-11-09T04:25:26.004Z,100561.59
2022-11-09T04:27:57.301Z,100556.19
2022-11-09T04:30:27.954Z,100563.47
2022-11-09T04:32:55.706Z,100571.56
2022-11-09T04:35:24.872Z,100582.63
2022-11-09T04:37:56.302Z,100581.81
2022-11-09T04:40:24.896Z,100582.63
2022-11-09T04:42:53.032Z,100586.16
2022-11-09T04:45:21.203Z,100590.75
2022-11-09T04:47:49.194Z,100592.88
2022-11-09T04:50:17.171Z,100593.94
2022-11-09T04:52:46.151Z,100592.31
2022-11-09T04:55:13.816Z,100600.41
2022-11-09T04:57:41.440Z,100596.91
2022-11-09T05:00:10.647Z,100596.91
2022-11-09T05:02:38.361Z,100590.13
2022-11-09T05:05:06.889Z,100589.28
2022-11-09T05:07:34.636Z,100587.66
2022-11-09T05:10:03.652Z,100593.31
2022-11-09T05:12:31.345Z,100591.44
2022-11-09T05:14:59.004Z,100577.34
2022-11-09T05:17:26.669Z,100576.53
2022-11-09T05:19:56.029Z,100581.94
2022-11-09T05:22:41.231Z,100580.31
2022-11-09T05:25:11.222Z,100581.38
2022-11-09T05:27:39.755Z,100589.47
2022-11-09T05:30:08.941Z,100581.38
2022-11-09T05:32:39.347Z,100581.13
2022-11-09T05:35:08.005Z,100578.66
2022-11-09T05:37:35.717Z,100579.78
2022-11-09T05:40:03.487Z,100590.81
2022-11-09T05:42:32.552Z,100583.78
2022-11-09T05:45:21.046Z,100586.50
2022-11-09T05:47:48.110Z,100587.31
2022-11-09T05:50:17.129Z,100580.03
2022-11-09T05:52:44.785Z,100589.19
2022-11-09T05:55:12.549Z,100583.78
2022-11-09T05:57:41.584Z,100586.50
2022-11-09T06:00:11.256Z,100583.78
2022-11-09T06:02:39.038Z,100586.50
2022-11-09T06:05:07.170Z,100586.50
2022-11-09T06:07:34.817Z,100591.06
2022-11-09T06:10:02.578Z,100594.59
2022-11-09T06:12:30.245Z,100588.63
2022-11-09T06:14:59.248Z,100592.97
2022-11-09T06:17:27.082Z,100594.84
2022-11-09T06:19:54.762Z,100599.19
2022-11-09T06:22:22.464Z,100599.44
2022-11-09T06:24:50.150Z,100600.50
2022-11-09T06:27:17.780Z,100602.94
2022-11-09T06:29:45.449Z,100602.13
2022-11-09T06:32:14.471Z,100605.91
2022-11-09T06:34:43.188Z,100612.94
2022-11-09T06:37:10.816Z,100606.72
2022-11-09T06:39:38.490Z,100608.34
2022-11-09T06:42:06.200Z,100618.59
2022-11-09T06:44:33.857Z,100617.19
2022-11-09T06:47:01.534Z,100615.81
2022-11-09T06:49:30.528Z,100623.09
2022-11-09T06:51:58.187Z,100623.34
2022-11-09T06:54:25.935Z,100630.88
2022-11-09T06:56:55.361Z,100630.06
2022-11-09T06:59:23.631Z,100630.88
2022-11-09T07:01:51.369Z,100636.53
2022-11-09T07:04:19.091Z,100636.53
2022-11-09T07:06:48.245Z,100626.78
2022-11-09T07:09:15.894Z,100631.13
2022-11-09T07:11:43.576Z,100629.50
2022-11-09T07:14:11.234Z,100636.78
2022-11-09T07:16:38.943Z,100645.38
2022-11-09T07:19:06.646Z,100648.31
2022-11-09T07:21:34.342Z,100646.19
2022-11-09T07:24:03.390Z,100645.38
2022-11-09T07:26:31.055Z,100652.66
2022-11-09T07:28:58.721Z,100652.66
2022-11-09T07:31:29.293Z,100657.72
2022-11-09T07:33:58.359Z,100651.75
2022-11-09T07:36:26.031Z,100652.81
2022-11-09T07:38:53.696Z,100663.38
2022-11-09T07:41:22.719Z,100652.81
2022-11-09T07:43:50.378Z,100655.28
2022-11-09T07:46:18.133Z,100657.16
2022-11-09T07:48:45.782Z,100662.56
2022-11-09T07:51:13.501Z,100653.63
2022-11-09T07:53:41.278Z,100660.91
2022-11-09T07:56:09.328Z,100660.91
2022-11-09T07:58:38.360Z,100671.16
2022-11-09T08:01:08.945Z,100674.41
2022-11-09T08:03:36.639Z,100673.34
2022-11-09T08:06:04.578Z,100679.56
2022-11-09T08:08:32.225Z,100676.06
2022-11-09T08:10:59.915Z,100681.69
2022-11-09T08:13:27.749Z,100677.94
2022-11-09T08:15:56.764Z,100675.81
2022-11-09T08:18:24.759Z,100676.63
2022-11-09T08:20:52.549Z,100685.56
2022-11-09T08:23:21.821Z,100692.00
2022-11-09T08:25:51.254Z,100694.47
2022-11-09T08:28:19.714Z,100689.88
2022-11-09T08:30:47.652Z,100692.84
2022-11-09T08:33:16.658Z,100690.94
2022-11-09T08:35:46.906Z,100700.69
2022-11-09T08:38:16.908Z,100706.91
2022-11-09T08:40:44.775Z,100707.97
2022-11-09T08:43:13.195Z,100709.84
2022-11-09T08:45:42.093Z,100705.28
2022-11-09T08:48:11.152Z,100700.69
2022-11-09T08:50:40.164Z,100702.31
2022-11-09T08:53:08.530Z,100707.72
2022-11-09T08:55:36.652Z,100698.81
2022-11-09T08:58:05.321Z,100706.91
2022-11-09T09:00:33.041Z,100708.53
2022-11-09T09:03:04.867Z,100701.25
2022-11-09T09:05:32.706Z,100702.91
2022-11-09T09:08:02.170Z,100714.53
2022-11-09T09:10:30.051Z,100705.59
2022-11-09T09:12:57.693Z,100699.13
2022-11-09T09:15:26.145Z,100708.88
2022-11-09T09:17:53.809Z,100715.09
2022-11-09T09:20:21.624Z,100711.31
2022-11-09T09:22:49.420Z,100711.91
2022-11-09T09:25:18.693Z,100709.44
2022-11-09T09:27:46.506Z,100710.34
2022-11-09T09:30:14.873Z,100716.81
2022-11-09T09:32:42.945Z,100719.75
2022-11-09T09:35:11.584Z,100720.56
2022-11-09T09:37:39.261Z,100717.06
2022-11-09T09:40:07.841Z,100722.47
2022-11-09T09:42:43.532Z,100735.16
2022-11-09T09:45:19.129Z,100723.03
2022-11-09T09:47:52.726Z,100733.84
2022-11-09T09:50:23.750Z,100730.06
2022-11-09T09:53:22.681Z,100744.16
2022-11-09T09:55:51.523Z,100743.66
2022-11-09T09:58:27.041Z,100738.25
2022-11-09T10:00:59.518Z,100749.63
2022-11-09T10:03:27.306Z,100752.34
2022-11-09T10:06:05.908Z,100756.69
2022-11-09T10:08:45.274Z,100762.06
2022-11-09T10:11:23.366Z,100752.56
2022-11-09T10:14:08.217Z,100775.59
2022-11-09T10:16:42.073Z,100763.72
2022-11-09T10:19:36.294Z,100762.66
2022-11-09T10:22:11.738Z,100771.56
2022-11-09T10:27:39.217Z,100764.59
2022-11-09T10:30:16.055Z,100760.81
2022-11-09T10:32:45.600Z,100755.16
2022-11-09T10:35:20.116Z,100757.38
2022-11-09T10:37:50.017Z,100757.94
2022-11-09T10:40:22.491Z,100765.25
2022-11-09T10:42:54.657Z,100758.53
2022-11-09T10:45:30.276Z,100762.88
2022-11-09T10:47:58.203Z,100763.69
2022-11-09T10:50:31.606Z,100776.13
2022-11-09T10:53:18.051Z,100786.69
2022-11-09T10:55:54.778Z,100786.44
2022-11-09T10:58:31.600Z,100789.97
2022-11-09T11:01:01.791Z,100791.59
2022-11-09T11:03:30.208Z,100786.19
2022-11-09T11:05:59.921Z,100793.25
2022-11-09T11:08:34.234Z,100791.34
2022-11-09T11:11:37.835Z,100794.88
2022-11-09T11:14:20.018Z,100788.09
2022-11-09T11:16:53.670Z,100799.22
2022-11-09T11:19:42.673Z,100792.41
2022-11-09T11:22:22.656Z,100799.22
2022-11-09T11:24:56.324Z,100806.00
2022-11-09T11:27:30.136Z,100794.13
2022-11-09T11:30:06.268Z,100794.38
2022-11-09T11:32:35.324Z,100791.44
2022-11-09T11:35:05.421Z,100803.31
2022-11-09T11:37:47.365Z,100811.16
2022-11-09T11:40:21.307Z,100804.94
2022-11-09T11:43:11.581Z,100819.28
2022-11-09T11:45:42.883Z,100807.41
2022-11-09T11:48:43.414Z,100811.16
2022-11-09T11:51:19.016Z,100814.22
2022-11-09T11:53:59.783Z,100810.44
2022-11-09T11:56:32.262Z,100809.38
2022-11-09T11:59:19.983Z,100809.94
2022-11-09T12:02:02.496Z,100802.91
2022-11-09T12:04:55.555Z,100809.13
2022-11-09T12:07:36.338Z,100807.25
2022-11-09T12:10:23.329Z,100806.66
2022-11-09T12:13:04.810Z,100801.59
2022-11-09T12:15:50.549Z,100803.47
2022-11-09T12:18:35.377Z,100804.53
2022-11-09T12:21:17.629Z,100809.22
2022-11-09T12:24:02.635Z,100805.03
2022-11-09T12:26:44.309Z,100798.47
2022-11-09T12:29:20.418Z,100799.22
2022-11-09T12:32:04.410Z,100792.75
2022-11-09T12:34:37.393Z,100794.91
2022-11-09T12:37:13.174Z,100802.13
2022-11-09T12:39:46.855Z,100794.28
2022-11-09T12:42:19.995Z,100803.72
2022-11-09T12:44:56.314Z,100808.56
2022-11-09T12:47:30.657Z,100803.03
2022-11-09T12:49:58.656Z,100808.44
2022-11-09T12:52:29.988Z,100809.19
2022-11-09T12:55:01.976Z,100819.72
2022-11-09T12:57:33.263Z,100822.03
2022-11-09T13:00:02.236Z,100813.34
2022-11-09T13:02:33.073Z,100807.75
2022-11-09T13:05:03.452Z,100824.56
2022-11-09T13:07:49.711Z,100822.94
2022-11-09T13:10:30.887Z,100831.03
2022-11-09T13:13:19.577Z,100824.56
2022-11-09T13:16:06.763Z,100836.84
2022-11-09T13:18:53.731Z,100839.41
2022-11-09T13:21:37.249Z,100845.38
2022-11-09T13:24:53.961Z,100855.00
2022-11-09T13:27:41.570Z,100850.31
2022-11-09T13:30:43.463Z,100847.63
2022-11-09T13:33:20.458Z,100852.72
2022-11-09T13:36:13.779Z,100856.06
2022-11-09T13:38:42.149Z,100857.06
2022-11-09T13:41:39.594Z,100864.59
2022-11-09T13:44:20.033Z,100868.19
2022-11-09T13:46:49.437Z,100861.41
2022-11-09T13:49:47.415Z,100848.28
2022-11-09T13:52:58.674Z,100876.44
2022-11-09T13:55:32.083Z,100869.91
2022-11-09T13:58:05.905Z,100876.03
2022-11-09T14:00:34.958Z,100876.34
2022-11-09T14:03:06.672Z,100867.28
2022-11-09T14:05:38.517Z,100870.53
2022-11-09T14:08:06.632Z,100885.47
2022-11-09T14:10:46.950Z,100885.56
2022-11-09T14:13:40.909Z,100891.22
2022-11-09T14:16:22.309Z,100889.75
2022-11-09T14:19:00.244Z,100894.56
2022-11-09T14:21:39.996Z,100897.75
2022-11-09T14:24:17.150Z,100903.50
2022-11-09T14:27:02.888Z,100909.09
2022-11-09T14:29:33.065Z,100915.50
2022-11-09T14:32:03.893Z,100918.69
2022-11-09T14:34:31.631Z,100913.69
2022-11-09T14:37:03.175Z,100923.59
2022-11-09T14:39:34.857Z,100924.66
2022-11-09T14:42:02.644Z,100926.56
2022-11-09T14:44:35.834Z,100929.00
2022-11-09T14:47:06.518Z,100926.88
2022-11-09T14:49:34.230Z,100925.16
2022-11-09T14:52:03.036Z,100922.28
2022-11-09T14:54:31.030Z,100923.94
2022-11-09T14:56:59.014Z,100944.44
2022-11-09T14:59:31.193Z,100937.63
2022-11-09T15:02:02.260Z,100934.84
2022-11-09T15:04:31.862Z,100940.50
2022-11-09T15:07:03.063Z,100952.13
2022-11-09T15:09:36.849Z,100951.31
2022-11-09T15:12:13.778Z,100957.78
2022-11-09T15:14:42.739Z,100962.38
2022-11-09T15:17:16.531Z,100958.03
2022-11-09T15:19:52.881Z,100961.78
2022-11-09T15:22:52.368Z,100964.50
2022-11-09T15:25:24.101Z,100968.50
2022-11-09T15:28:24.018Z,100968.50
2022-11-09T15:31:13.260Z,100968.75
2022-11-09T15:33:46.742Z,100971.69
2022-11-09T15:36:31.838Z,100970.84
2022-11-09T15:39:09.006Z,100980.28
2022-11-09T15:41:37.738Z,100977.09
2022-11-09T15:44:06.206Z,100988.97
2022-11-09T15:46:37.180Z,100994.63
2022-11-09T15:49:15.676Z,100989.22
2022-11-09T15:51:45.223Z,100992.97
2022-11-09T15:54:13.521Z,101002.16
2022-11-09T15:56:42.305Z,101000.50
2022-11-09T15:59:17.502Z,101002.38
2022-11-09T16:01:45.192Z,101005.09
2022-11-09T16:04:12.855Z,101007.22
2022-11-09T16:06:46.124Z,101026.97
2022-11-09T16:09:15.721Z,101010.50
2022-11-09T16:11:43.399Z,101013.44
2022-11-09T16:14:11.204Z,101018.84
2022-11-09T16:16:38.902Z,101014.50
2022-11-09T16:19:06.590Z,101029.09
2022-11-09T16:21:34.331Z,101031.78
2022-11-09T16:24:01.959Z,101034.75
2022-11-09T16:26:31.978Z,101033.09
2022-11-09T16:29:00.451Z,101035.81
2022-11-09T16:31:50.212Z,101051.19
2022-11-09T16:34:16.228Z,101056.84
2022-11-09T16:36:49.705Z,101066.03
2022-11-09T16:39:20.313Z,101060.63
2022-11-09T16:41:51.215Z,101074.13
2022-11-09T16:44:23.592Z,101079.53
2022-11-09T16:46:52.083Z,101077.56
2022-11-09T16:49:19.873Z,101084.59
2022-11-09T16:51:47.506Z,101083.53
2022-11-09T16:54:15.130Z,101085.66
2022-11-09T16:56:43.040Z,101090.84
2022-11-09T16:59:12.913Z,101099.19
2022-11-09T17:01:40.678Z,101099.41
2022-11-09T17:04:08.485Z,101115.41
2022-11-09T17:06:36.688Z,101115.41
2022-11-09T17:09:04.497Z,101121.88
2022-11-09T17:11:32.733Z,101139.72
2022-11-09T17:14:01.272Z,101141.63
2022-11-09T17:16:30.574Z,101144.56
2022-11-09T17:18:59.996Z,101146.44
2022-11-09T17:21:29.116Z,101147.38
2022-11-09T17:23:58.048Z,101162.91
2022-11-09T17:26:26.800Z,101168.31
2022-11-09T17:28:54.512Z,101183.47
2022-11-09T17:31:26.511Z,101180.75
2022-11-09T17:34:00.953Z,101189.69
2022-11-09T17:36:56.896Z,101194.28
2022-11-09T17:39:16.874Z,101196.16
2022-11-09T17:41:44.566Z,101193.69
2022-11-09T17:44:12.220Z,101194.75
2022-11-09T17:46:39.861Z,101201.22
2022-11-09T17:49:10.472Z,101197.69
2022-11-09T17:51:38.348Z,101212.03
2022-11-09T17:54:06.259Z,101206.84
2022-11-09T17:56:35.098Z,101214.63
2022-11-09T17:59:05.372Z,101211.66
2022-11-09T18:01:39.407Z,101214.63
2022-11-09T18:04:11.856Z,101218.97
2022-11-09T18:06:39.909Z,101220.38
2022-11-09T18:11:55.495Z,101218.84
2022-11-09T18:14:23.177Z,101228.59
2022-11-09T18:16:50.825Z,101232.34
2022-11-09T18:19:19.886Z,101244.00
2022-11-09T18:21:48.016Z,101243.63
2022-11-09T18:24:15.774Z,101240.34
2022-11-09T18:26:43.410Z,101250.34
2022-11-09T18:29:11.367Z,101253.88
2022-11-09T18:31:40.004Z,101257.97
2022-11-09T18:34:07.742Z,101256.91
2022-11-09T18:36:36.971Z,101262.91
2022-11-09T18:39:05.140Z,101259.63
2022-11-09T18:41:33.628Z,101267.72
2022-11-09T18:44:01.320Z,101263.38
2022-11-09T18:46:30.842Z,101266.09
2022-11-09T18:48:58.598Z,101271.72
2022-11-09T18:51:26.348Z,101271.13
2022-11-09T18:53:55.422Z,101276.53
2022-11-09T18:56:25.262Z,101283.25
2022-11-09T18:58:54.478Z,101290.53
2022-11-09T19:01:24.119Z,101288.28
2022-11-09T19:03:56.297Z,101290.41
2022-11-09T19:06:25.695Z,101296.88
2022-11-09T19:09:11.024Z,101287.13
2022-11-09T19:11:40.156Z,101295.44
2022-11-09T19:14:07.855Z,101298.38
2022-11-09T19:16:36.004Z,101301.31
2022-11-09T19:19:03.720Z,101295.09
2022-11-09T19:21:41.135Z,101308.03
2022-11-09T19:24:12.113Z,101309.06
2022-11-09T19:26:41.303Z,101321.75
2022-11-09T19:29:10.058Z,101302.50
2022-11-09T19:31:38.425Z,101311.41
2022-11-09T19:34:06.166Z,101313.28
2022-11-09T19:36:34.639Z,101324.34
2022-11-09T19:39:03.000Z,101329.19
2022-11-09T19:41:30.762Z,101330.22
2022-11-09T19:44:00.198Z,101338.34
2022-11-09T19:46:30.444Z,101340.44
2022-11-09T19:48:58.514Z,101341.50
2022-11-09T19:51:29.325Z,101347.13
2022-11-09T19:53:59.047Z,101344.66
2022-11-09T19:56:30.031Z,101360.06
2022-11-09T19:59:01.081Z,101360.28
2022-11-09T20:01:30.340Z,101365.09
2022-11-09T20:04:00.211Z,101377.78
2022-11-09T20:06:28.910Z,101376.94
2022-11-09T20:08:56.975Z,101387.97
2022-11-09T20:11:44.192Z,101389.03
2022-11-09T20:14:13.501Z,101392.78
2022-11-09T20:16:42.067Z,101406.28
2022-11-09T20:19:12.402Z,101397.59
2022-11-09T20:21:41.155Z,101404.88
2022-11-09T20:24:12.019Z,101402.88
2022-11-09T20:26:40.591Z,101415.91
2022-11-09T20:29:08.388Z,101421.31
2022-11-09T20:31:37.734Z,101423.19
2022-11-09T20:34:05.900Z,101425.88
2022-11-09T20:36:33.555Z,101433.41
2022-11-09T20:39:01.206Z,101440.69
2022-11-09T20:41:28.975Z,101439.84
2022-11-09T20:43:56.617Z,101444.44
2022-11-09T20:46:25.127Z,101447.13
2022-11-09T20:48:55.591Z,101450.06
2022-11-09T20:51:24.995Z,101456.50
2022-11-09T20:53:52.947Z,101462.72
2022-11-09T20:56:21.729Z,101455.91
2022-11-09T20:58:49.653Z,101462.97
2022-11-09T21:01:19.428Z,101468.59
2022-11-09T21:03:47.828Z,101466.94
2022-11-09T21:06:16.841Z,101477.75
2022-11-09T21:08:45.928Z,101477.97
2022-11-09T21:11:14.109Z,101478.19
2022-11-09T21:13:44.017Z,101479.03
2022-11-09T21:16:13.878Z,101480.06
2022-11-09T21:18:42.298Z,101482.16
2022-11-09T21:21:12.329Z,101477.81
2022-11-09T21:23:59.022Z,101478.03
2022-11-09T21:26:45.092Z,101489.91
2022-11-09T21:29:32.389Z,101491.53
2022-11-09T21:31:59.967Z,101486.38
2022-11-09T21:34:32.717Z,101493.66
2022-11-09T21:37:03.237Z,101496.34
2022-11-09T21:39:32.282Z,101490.13
2022-11-09T21:41:59.991Z,101494.47
2022-11-09T21:44:29.475Z,101492.44
2022-11-09T21:46:57.505Z,101501.97
2022-11-09T21:49:25.828Z,101506.78
2022-11-09T21:51:54.278Z,101501.59
2022-11-09T21:54:23.039Z,101505.94
2022-11-09T21:56:52.758Z,101504.28
2022-11-09T21:59:20.405Z,101511.56
2022-11-09T22:01:48.224Z,101512.63
2022-11-09T22:04:16.553Z,101524.03
2022-11-09T22:06:44.623Z,101518.84
2022-11-09T22:09:17.544Z,101523.41
2022-11-09T22:12:03.373Z,101517.19
2022-11-09T22:14:50.024Z,101516.38
2022-11-09T22:17:17.747Z,101528.00
2022-11-09T22:20:03.117Z,101524.47
2022-11-09T22:22:31.802Z,101524.69
2022-11-09T22:24:59.694Z,101532.78
2022-11-09T22:27:27.514Z,101533.84
2022-11-09T22:29:56.573Z,101539.25
2022-11-09T22:32:24.322Z,101555.06
2022-11-09T22:34:52.047Z,101555.66
2022-11-09T22:37:19.779Z,101561.28
2022-11-09T22:39:47.808Z,101562.34
2022-11-09T22:42:15.528Z,101563.16
2022-11-09T22:44:43.197Z,101560.47
2022-11-09T22:47:12.238Z,101566.91
2022-11-09T22:49:40.333Z,101568.78
2022-11-09T22:52:08.011Z,101576.88
2022-11-09T22:54:35.697Z,101580.63
2022-11-09T22:57:03.850Z,101582.50
2022-11-09T22:59:31.608Z,101585.19
2022-11-09T23:01:59.458Z,101583.78
2022-11-09T23:04:28.563Z,101580.47
2022-11-09T23:06:56.386Z,101584.81
2022-11-09T23:09:24.097Z,101581.50
2022-11-09T23:11:51.737Z,101594.19
2022-11-09T23:14:40.231Z,101600.63
2022-11-09T23:17:27.897Z,101601.44
2022-11-09T23:19:55.988Z,101610.81
2022-11-09T23:22:23.631Z,101617.25
2022-11-09T23:25:08.991Z,101614.56
2022-11-09T23:27:36.679Z,101617.25
2022-11-09T23:30:04.970Z,101623.72
2022-11-09T23:32:32.614Z,101624.75
2022-11-09T23:35:01.613Z,101635.72
2022-11-09T23:37:29.277Z,101635.56
2022-11-09T23:39:56.915Z,101633.03
2022-11-09T23:42:24.646Z,101633.25
2022-11-09T23:44:52.319Z,101635.97
2022-11-09T23:47:20.038Z,101639.69
2022-11-09T23:49:47.691Z,101644.28
2022-11-09T23:52:16.706Z,101644.28
2022-11-09T23:54:45.567Z,101642.63
2022-11-09T23:57:13.554Z,101652.59
2022-11-09T23:59:41.242Z,101657.16
